Time;durP1;ratioP1;P1;durP2;ratioP2;P2;SDS_P1;SDS_P2;PMS_P1;PMS_P2;Temp;Humidity;BMP_temperature;BMP_pressure;BME280_temperature;BME280_humidity;BME280_pressure;Samples;Min_cycle;Max_cycle;Signal;HPM_P1;HPM_P2
2022/05/09 00:00:29;;;;;;;5.03;3.10;;;;;;;7.30;99.79;101895.72;4952201;28;20216;-70
2022/05/09 00:02:55;;;;;;;7.27;2.83;;;;;;;7.26;100.00;101898.28;4950157;29;20266;-70
2022/05/09 00:05:24;;;;;;;7.70;2.90;;;;;;;7.25;100.00;101894.81;4954420;29;20211;-70
2022/05/09 00:07:52;;;;;;;5.07;3.20;;;;;;;7.06;97.84;101893.78;4954497;29;20198;-69
2022/05/09 00:10:23;;;;;;;6.23;3.30;;;;;;;7.05;100.00;101894.63;4953976;29;20211;-68
2022/05/09 00:12:49;;;;;;;7.80;2.67;;;;;;;6.98;99.77;101888.56;4954654;29;20211;-69
2022/05/09 00:15:19;;;;;;;7.00;3.33;;;;;;;7.00;100.00;101897.22;4954111;29;20222;-68
2022/05/09 00:17:46;;;;;;;5.17;2.90;;;;;;;6.90;100.00;101891.94;4954719;29;20211;-69
2022/05/09 00:20:15;;;;;;;9.60;3.20;;;;;;;6.78;100.00;101900.44;4954377;29;20219;-70
2022/05/09 00:22:46;;;;;;;6.10;2.80;;;;;;;6.81;100.00;101901.34;4946645;29;20207;-70
2022/05/09 00:25:14;;;;;;;3.37;2.60;;;;;;;6.83;100.00;101903.97;4946836;29;20558;-69
2022/05/09 00:27:40;;;;;;;7.80;2.70;;;;;;;6.91;100.00;101891.94;4954286;29;20213;-70
2022/05/09 00:30:08;;;;;;;6.73;2.80;;;;;;;6.81;100.00;101905.66;4954209;29;20225;-69
2022/05/09 00:32:34;;;;;;;5.20;2.87;;;;;;;6.78;100.00;101910.81;4953757;29;20210;-69
2022/05/09 00:35:01;;;;;;;4.83;2.90;;;;;;;6.76;100.00;101909.94;4953344;29;20223;-70
2022/05/09 00:37:28;;;;;;;6.07;3.10;;;;;;;6.85;100.00;101909.16;4949322;29;20201;-70
2022/05/09 00:39:54;;;;;;;8.20;2.73;;;;;;;7.00;100.00;101904.09;4953705;29;20222;-70
2022/05/09 00:42:22;;;;;;;5.93;2.77;;;;;;;6.78;100.00;101909.09;4952670;29;20217;-70
2022/05/09 00:44:49;;;;;;;10.93;3.30;;;;;;;7.01;100.00;101905.84;4954409;29;20218;-69
2022/05/09 00:47:16;;;;;;;6.93;3.13;;;;;;;6.74;100.00;101909.91;4954191;29;20202;-68
2022/05/09 00:49:47;;;;;;;8.40;3.23;;;;;;;6.72;100.00;101910.75;4947996;29;20226;-70
2022/05/09 00:52:19;;;;;;;4.23;3.03;;;;;;;6.69;100.00;101910.72;4953827;29;20294;-69
2022/05/09 00:54:49;;;;;;;7.63;3.47;;;;;;;6.62;100.00;101909.78;4953369;29;20222;-70
2022/05/09 00:57:22;;;;;;;7.03;3.00;;;;;;;6.62;100.00;101918.44;4953365;29;20219;-69
2022/05/09 00:59:53;;;;;;;7.57;3.43;;;;;;;6.75;100.00;101913.38;4953844;28;20227;-70
2022/05/09 01:02:21;;;;;;;9.27;3.23;;;;;;;6.68;100.00;101915.03;4954197;29;20195;-69
2022/05/09 01:04:53;;;;;;;5.53;3.27;;;;;;;6.57;100.00;101916.66;4954032;29;20248;-70
2022/05/09 01:07:20;;;;;;;4.77;2.90;;;;;;;6.45;100.00;101919.97;4949052;29;20204;-70
2022/05/09 01:09:47;;;;;;;6.07;3.00;;;;;;;6.43;100.00;101917.34;4953780;29;20559;-70
2022/05/09 01:12:16;;;;;;;4.53;3.00;;;;;;;6.35;100.00;101912.94;4953748;28;20202;-70
2022/05/09 01:14:43;;;;;;;8.33;3.03;;;;;;;6.39;100.00;101913.00;4954039;29;20215;-69
2022/05/09 01:17:11;;;;;;;3.33;2.83;;;;;;;6.42;100.00;101909.56;4953209;29;20213;-70
2022/05/09 01:19:40;;;;;;;9.63;3.43;;;;;;;6.23;100.00;101919.72;4952915;29;20239;-69
2022/05/09 01:22:21;;;;;;;8.87;4.00;;;;;;;6.13;100.00;101912.66;4953228;29;20206;-69
2022/05/09 01:24:47;;;;;;;6.50;3.07;;;;;;;6.08;100.00;101911.72;4953470;28;20201;-69
2022/05/09 01:27:13;;;;;;;7.47;2.97;;;;;;;5.96;100.00;101914.16;4936282;29;20233;-70
2022/05/09 01:29:47;;;;;;;7.37;3.53;;;;;;;5.95;100.00;101920.19;4950757;29;20717;-70
2022/05/09 01:32:16;;;;;;;6.80;3.43;;;;;;;5.89;100.00;101913.16;4944055;29;20203;-70
2022/05/09 01:34:47;;;;;;;7.43;3.17;;;;;;;5.95;100.00;101912.41;4947576;29;20224;-70
2022/05/09 01:37:15;;;;;;;8.53;3.23;;;;;;;5.76;100.00;101906.97;4953415;29;20572;-70
2022/05/09 01:39:42;;;;;;;7.10;3.07;;;;;;;5.82;100.00;101908.75;4953995;28;20701;-69
2022/05/09 01:42:11;;;;;;;9.20;3.33;;;;;;;5.75;100.00;101904.34;4953651;29;20198;-70
2022/05/09 01:44:38;;;;;;;5.47;3.20;;;;;;;5.71;100.00;101915.50;4950849;29;20613;-69
2022/05/09 01:49:49;;;;;;;7.23;3.37;;;;;;;5.74;100.00;101907.81;4952544;29;20223;-72
2022/05/09 01:52:17;;;;;;;10.37;3.70;;;;;;;5.78;100.00;101909.56;4952251;29;20261;-70
2022/05/09 01:54:45;;;;;;;5.93;3.27;;;;;;;5.81;100.00;101913.06;4951980;29;20215;-69
2022/05/09 01:57:12;;;;;;;5.67;2.93;;;;;;;5.80;100.00;101913.91;4952186;29;20210;-70
2022/05/09 01:59:38;;;;;;;4.97;3.43;;;;;;;5.71;100.00;101920.69;4952167;29;20234;-70
2022/05/09 02:02:10;;;;;;;6.80;3.23;;;;;;;5.85;100.00;101908.81;4952448;29;20219;-70
2022/05/09 02:04:38;;;;;;;8.20;3.40;;;;;;;5.77;100.00;101913.00;4952527;29;20202;-70
2022/05/09 02:07:05;;;;;;;8.43;3.27;;;;;;;5.67;100.00;101912.00;4952350;29;20253;-70
2022/05/09 02:09:32;;;;;;;7.37;3.30;;;;;;;5.51;100.00;101918.69;4952120;29;20772;-69
2022/05/09 02:11:59;;;;;;;7.77;3.30;;;;;;;5.57;100.00;101912.72;4935045;29;20221;-69
2022/05/09 02:14:26;;;;;;;4.77;2.60;;;;;;;5.45;100.00;101922.03;4951999;29;20215;-72
2022/05/09 02:16:52;;;;;;;8.67;3.20;;;;;;;5.56;100.00;101922.22;4952350;29;20209;-70
2022/05/09 02:19:18;;;;;;;3.77;2.67;;;;;;;5.47;100.00;101922.03;4951331;29;20246;-72
2022/05/09 02:21:45;;;;;;;8.07;3.33;;;;;;;5.35;100.00;101917.56;4950835;29;20202;-69
2022/05/09 02:24:11;;;;;;;5.63;3.37;;;;;;;5.28;100.00;101921.75;4950664;28;21007;-69
2022/05/09 02:26:38;;;;;;;7.93;3.20;;;;;;;5.34;100.00;101927.88;4951584;29;20213;-70
2022/05/09 02:29:06;;;;;;;10.77;3.47;;;;;;;5.27;100.00;101919.16;4949907;28;20222;-72
2022/05/09 02:31:34;;;;;;;6.47;3.40;;;;;;;5.07;100.00;101924.00;4950576;29;20199;-70
2022/05/09 02:34:01;;;;;;;6.43;3.23;;;;;;;5.10;100.00;101939.53;4950251;29;20199;-72
2022/05/09 02:36:29;;;;;;;7.07;3.50;;;;;;;5.16;100.00;101926.72;4951008;29;20202;-73
2022/05/09 02:38:55;;;;;;;4.60;2.93;;;;;;;4.97;100.00;101935.88;4949969;28;20577;-69
2022/05/09 02:41:22;;;;;;;6.10;2.90;;;;;;;5.20;100.00;101928.50;4947884;29;20794;-72
2022/05/09 02:43:48;;;;;;;5.80;3.13;;;;;;;5.08;100.00;101926.63;4946342;29;20213;-72
2022/05/09 02:46:16;;;;;;;7.20;3.70;;;;;;;4.92;100.00;101934.91;4949935;29;20586;-72
2022/05/09 02:48:44;;;;;;;9.10;3.57;;;;;;;5.13;100.00;101939.59;4942829;29;20355;-71
2022/05/09 02:51:11;;;;;;;6.30;3.40;;;;;;;4.99;100.00;101939.34;4950198;29;20210;-72
2022/05/09 02:53:38;;;;;;;10.47;3.40;;;;;;;4.84;100.00;101941.69;4949657;29;20213;-71
2022/05/09 02:56:06;;;;;;;12.33;3.60;;;;;;;4.72;100.00;101948.34;4949659;29;20218;-72
2022/05/09 02:58:33;;;;;;;9.60;3.23;;;;;;;4.80;100.00;101939.88;4950845;28;20233;-71
2022/05/09 03:00:59;;;;;;;7.13;3.37;;;;;;;4.67;100.00;101943.94;4951465;29;20210;-72
2022/05/09 03:06:11;;;;;;;7.73;3.40;;;;;;;4.76;100.00;101956.16;4947450;29;20202;-72
2022/05/09 03:08:38;;;;;;;5.07;3.23;;;;;;;4.57;100.00;101948.03;4945629;29;20230;-72
2022/05/09 03:11:04;;;;;;;5.47;2.97;;;;;;;4.50;100.00;101951.34;4951287;29;20210;-72
2022/05/09 03:13:31;;;;;;;7.17;3.30;;;;;;;4.49;100.00;101955.66;4951411;29;20705;-72
2022/05/09 03:15:58;;;;;;;7.20;3.20;;;;;;;4.33;100.00;101956.19;4950949;29;20586;-71
2022/05/09 03:18:26;;;;;;;11.83;2.93;;;;;;;4.29;100.00;101968.16;4917137;29;1003374;-72
2022/05/09 03:20:53;;;;;;;5.43;3.03;;;;;;;4.31;100.00;101963.91;4951622;29;20199;-71
2022/05/09 03:23:20;;;;;;;5.87;3.43;;;;;;;4.33;100.00;101962.22;4952401;29;20278;-71
2022/05/09 03:25:47;;;;;;;7.57;3.50;;;;;;;4.44;100.00;101972.75;4951918;29;20581;-72
2022/05/09 03:28:16;;;;;;;5.00;2.93;;;;;;;4.43;100.00;101967.56;4951922;29;20198;-72
2022/05/09 03:30:50;;;;;;;5.30;3.20;;;;;;;4.27;100.00;101964.66;4945351;29;20195;-72
2022/05/09 03:33:16;;;;;;;5.83;3.40;;;;;;;4.33;100.00;101969.09;4951996;29;20262;-72
2022/05/09 03:35:45;;;;;;;6.23;3.30;;;;;;;4.42;100.00;101968.41;4955425;28;20280;-72
2022/05/09 03:38:11;;;;;;;5.20;3.20;;;;;;;4.38;100.00;101964.91;4938488;29;20218;-71
2022/05/09 03:40:37;;;;;;;6.47;3.33;;;;;;;4.46;100.00;101970.22;4955988;29;20202;-72
2022/05/09 03:43:05;;;;;;;7.63;3.57;;;;;;;4.36;100.00;101967.44;4955834;29;20210;-71
2022/05/09 03:45:35;;;;;;;9.13;3.57;;;;;;;4.39;100.00;101971.78;4955516;29;20226;-72
2022/05/09 03:48:03;;;;;;;8.30;3.70;;;;;;;4.31;100.00;101969.06;4955795;29;20212;-72
2022/05/09 03:50:30;;;;;;;7.60;3.33;;;;;;;4.50;100.00;101969.41;4953542;29;20609;-71
2022/05/09 03:52:57;;;;;;;5.73;3.33;;;;;;;4.66;100.00;101974.06;4949755;29;20678;-72
2022/05/09 03:55:24;;;;;;;8.90;3.67;;;;;;;4.44;100.00;101979.66;4955354;29;20281;-72
2022/05/09 03:57:53;;;;;;;6.90;3.43;;;;;;;4.73;100.00;101970.78;4955337;29;20663;-72
2022/05/09 04:00:22;;;;;;;6.53;3.40;;;;;;;4.70;100.00;101968.13;4955439;29;20237;-72
2022/05/09 04:02:48;;;;;;;8.67;3.90;;;;;;;4.80;100.00;101970.88;4950620;29;20262;-72
2022/05/09 04:05:17;;;;;;;4.47;3.20;;;;;;;4.78;100.00;101969.97;4951348;28;20685;-72
2022/05/09 04:07:45;;;;;;;9.23;3.10;;;;;;;4.89;100.00;101971.03;4947271;29;20233;-72
2022/05/09 04:10:13;;;;;;;5.63;3.63;;;;;;;5.01;100.00;101975.56;4955171;29;20717;-72
2022/05/09 04:12:41;;;;;;;6.63;3.23;;;;;;;5.32;100.00;101977.00;4955331;28;20199;-72
2022/05/09 04:17:49;;;;;;;5.63;3.80;;;;;;;5.56;100.00;101976.53;4923520;29;20257;-70
2022/05/09 04:20:15;;;;;;;8.80;3.97;;;;;;;5.80;100.00;101976.03;4955008;29;20223;-72
2022/05/09 04:22:42;;;;;;;9.53;4.03;;;;;;;5.83;100.00;101976.09;4953567;29;20682;-72
2022/05/09 04:25:09;;;;;;;9.03;4.23;;;;;;;5.88;100.00;101973.56;4953019;29;20198;-72
2022/05/09 04:27:37;;;;;;;7.03;4.27;;;;;;;5.86;100.00;101978.72;4954280;29;20218;-72
2022/05/09 04:30:07;;;;;;;9.30;4.77;;;;;;;5.88;100.00;101978.75;4948444;29;20285;-72
2022/05/09 04:32:34;;;;;;;11.00;5.23;;;;;;;5.96;100.00;101977.19;4953649;29;20213;-72
2022/05/09 04:35:01;;;;;;;6.23;3.90;;;;;;;6.25;100.00;101977.56;4957474;28;20215;-72
2022/05/09 04:37:27;;;;;;;11.47;4.40;;;;;;;6.42;100.00;101983.00;4955350;28;20217;-72
2022/05/09 04:39:54;;;;;;;9.50;4.17;;;;;;;6.55;100.00;101983.13;4953922;28;20590;-72
2022/05/09 04:42:20;;;;;;;9.47;4.90;;;;;;;6.66;100.00;101980.66;4951116;29;20195;-71
2022/05/09 04:44:48;;;;;;;7.57;3.77;;;;;;;6.75;100.00;101980.78;4953311;29;20290;-72
2022/05/09 04:47:14;;;;;;;13.13;4.80;;;;;;;6.62;100.00;101985.81;4954167;28;20904;-70
2022/05/09 04:49:40;;;;;;;8.90;4.30;;;;;;;6.73;100.00;101995.44;4955040;28;20226;-71
2022/05/09 04:52:07;;;;;;;7.33;4.57;;;;;;;6.86;100.00;101999.94;4952144;29;20211;-71
2022/05/09 04:54:34;;;;;;;11.50;5.20;;;;;;;7.05;100.00;102006.16;4953741;29;20218;-71
2022/05/09 04:57:00;;;;;;;7.93;4.57;;;;;;;7.25;100.00;102005.50;4954860;29;20574;-71
2022/05/09 04:59:27;;;;;;;9.43;5.03;;;;;;;7.38;99.49;102002.16;4950610;29;20388;-71
2022/05/09 05:01:54;;;;;;;8.83;4.70;;;;;;;7.52;97.81;102007.47;4949276;29;20873;-71
2022/05/09 05:04:20;;;;;;;8.83;4.57;;;;;;;7.68;96.86;102008.47;4951261;29;20203;-72
2022/05/09 05:06:47;;;;;;;13.23;5.03;;;;;;;7.82;95.72;102013.78;4952122;29;20198;-69
2022/05/09 05:09:13;;;;;;;10.40;4.73;;;;;;;7.93;94.65;102020.78;4947802;28;20223;-71
2022/05/09 05:11:39;;;;;;;8.47;4.60;;;;;;;8.03;95.55;102019.09;4947716;29;20233;-71
2022/05/09 05:14:06;;;;;;;11.83;5.07;;;;;;;8.16;94.26;102027.84;4947952;28;20206;-69
2022/05/09 05:19:19;;;;;;;7.67;4.80;;;;;;;8.41;92.00;102033.19;4950894;29;20606;-71
2022/05/09 05:21:46;;;;;;;7.30;4.70;;;;;;;8.46;90.69;102037.59;4949561;29;20217;-71
2022/05/09 05:24:12;;;;;;;8.73;5.70;;;;;;;8.58;90.81;102031.56;4952605;29;20217;-70
2022/05/09 05:26:40;;;;;;;11.27;5.47;;;;;;;8.66;89.94;102036.81;4948797;29;20203;-69
2022/05/09 05:29:07;;;;;;;10.80;5.37;;;;;;;8.73;89.93;102038.59;4948693;29;21032;-71
2022/05/09 05:31:33;;;;;;;14.00;5.23;;;;;;;8.81;89.50;102036.91;4953442;29;20214;-71
2022/05/09 05:34:00;;;;;;;10.07;4.83;;;;;;;8.87;88.38;102039.50;4954346;28;20206;-71
2022/05/09 05:36:28;;;;;;;12.10;4.60;;;;;;;8.98;88.10;102049.06;4951780;29;20215;-70
2022/05/09 05:38:54;;;;;;;11.83;4.80;;;;;;;9.02;88.15;102043.00;4953639;29;20219;-72
2022/05/09 05:41:22;;;;;;;10.20;5.27;;;;;;;9.08;87.38;102056.91;4951443;29;20211;-72
2022/05/09 05:43:49;;;;;;;10.10;5.30;;;;;;;9.18;87.43;102051.72;4952301;29;20214;-71
2022/05/09 05:46:16;;;;;;;11.57;5.73;;;;;;;9.26;86.27;102050.88;4948524;29;20828;-71
2022/05/09 05:48:42;;;;;;;12.00;5.67;;;;;;;9.29;86.80;102055.22;4949117;29;20234;-72
2022/05/09 05:51:11;;;;;;;16.10;5.67;;;;;;;9.38;85.63;102055.25;4949169;29;20218;-71
2022/05/09 05:53:39;;;;;;;13.43;5.90;;;;;;;9.51;85.92;102055.25;4949274;29;20226;-71
2022/05/09 05:56:05;;;;;;;9.67;5.47;;;;;;;9.50;85.14;102057.00;4950107;29;20226;-71
2022/05/09 05:58:31;;;;;;;13.17;6.40;;;;;;;9.53;84.51;102061.34;4949694;28;20226;-71
2022/05/09 06:00:58;;;;;;;12.67;5.87;;;;;;;9.54;84.69;102056.13;4952619;29;20204;-71
2022/05/09 06:03:24;;;;;;;8.27;5.07;;;;;;;9.55;84.67;102057.88;4951292;29;20626;-71
2022/05/09 06:05:51;;;;;;;12.40;5.67;;;;;;;9.70;84.46;102067.41;4949639;29;20207;-70
2022/05/09 06:08:17;;;;;;;11.50;5.87;;;;;;;9.73;84.15;102064.81;4952398;29;20236;-70
2022/05/09 06:10:46;;;;;;;10.10;5.50;;;;;;;9.88;83.54;102069.16;4951465;29;20203;-71
2022/05/09 06:13:15;;;;;;;9.40;5.50;;;;;;;9.93;83.88;102063.97;4953450;29;20208;-71
2022/05/09 06:15:42;;;;;;;13.30;5.80;;;;;;;10.09;82.69;102067.41;4953638;29;20228;-71
2022/05/09 06:18:12;;;;;;;9.43;5.70;;;;;;;10.15;82.79;102063.06;4953171;29;20222;-71
2022/05/09 06:20:41;;;;;;;9.70;5.50;;;;;;;10.17;81.97;102069.13;4953626;29;20220;-70
2022/05/09 06:23:09;;;;;;;11.33;5.43;;;;;;;10.24;82.33;102065.66;4953239;29;20213;-69
2022/05/09 06:25:36;;;;;;;12.90;5.87;;;;;;;10.28;82.16;102074.34;4952790;29;20233;-69
2022/05/09 06:28:06;;;;;;;15.03;5.93;;;;;;;10.35;81.91;102064.81;4952778;28;20217;-70
2022/05/09 06:30:32;;;;;;;15.27;5.87;;;;;;;10.48;81.05;102074.31;4953911;29;20202;-70
2022/05/09 06:32:59;;;;;;;15.83;5.97;;;;;;;10.58;80.92;102062.13;4936221;29;20752;-71
2022/05/09 06:35:27;;;;;;;12.90;6.30;;;;;;;10.67;80.55;102067.31;4936212;29;20572;-71
2022/05/09 06:37:58;;;;;;;11.87;5.80;;;;;;;10.84;80.16;102075.06;4951104;29;20429;-71
2022/05/09 06:40:24;;;;;;;12.37;6.33;;;;;;;10.86;79.92;102067.25;4951380;29;20689;-71
2022/05/09 06:42:52;;;;;;;8.23;5.13;;;;;;;10.95;80.60;102064.59;4952741;29;20689;-70
2022/05/09 06:45:20;;;;;;;12.50;5.27;;;;;;;11.07;79.72;102069.75;4948884;29;20202;-69
2022/05/09 06:47:48;;;;;;;9.63;5.47;;;;;;;11.21;78.58;102068.81;4951235;29;20210;-71
2022/05/09 06:50:15;;;;;;;7.70;5.60;;;;;;;11.27;77.81;102071.38;4943709;29;20234;-71
2022/05/09 06:52:42;;;;;;;11.43;5.57;;;;;;;11.36;79.24;102066.09;4952100;29;20212;-71
2022/05/09 06:55:09;;;;;;;9.83;6.10;;;;;;;11.43;76.49;102078.22;4951516;29;20214;-71
2022/05/09 06:57:37;;;;;;;10.57;5.63;;;;;;;11.36;76.45;102082.66;4951909;29;20221;-71
2022/05/09 07:00:05;;;;;;;10.20;5.30;;;;;;;11.44;78.15;102076.50;4951447;28;20230;-70
2022/05/09 07:02:33;;;;;;;9.13;6.43;;;;;;;11.63;76.97;102074.63;4945962;29;20219;-70
2022/05/09 07:05:04;;;;;;;11.03;6.07;;;;;;;11.72;76.37;102078.03;4934699;29;20203;-69
2022/05/09 07:07:38;;;;;;;12.87;5.80;;;;;;;11.84;75.29;102082.28;4951526;29;20187;-71
2022/05/09 07:10:06;;;;;;;14.07;6.00;;;;;;;12.00;76.42;102074.38;4951561;28;20237;-70
2022/05/09 07:12:32;;;;;;;10.83;5.47;;;;;;;12.11;77.68;102069.88;4950660;29;20203;-70
2022/05/09 07:14:59;;;;;;;8.23;5.87;;;;;;;12.14;75.94;102075.09;4950280;29;20206;-69
2022/05/09 07:17:25;;;;;;;14.63;6.30;;;;;;;12.20;73.44;102075.03;4949180;29;20225;-71
2022/05/09 07:19:53;;;;;;;14.27;6.10;;;;;;;12.24;75.37;102078.47;4950716;29;20315;-71
2022/05/09 07:22:19;;;;;;;9.60;5.90;;;;;;;12.31;73.93;102083.66;4948394;29;20201;-71
2022/05/09 07:24:45;;;;;;;10.17;6.13;;;;;;;12.39;73.00;102083.56;4951048;29;20222;-71
2022/05/09 07:27:12;;;;;;;12.40;5.93;;;;;;;12.49;74.87;102077.34;4950733;29;20195;-71
2022/05/09 07:29:38;;;;;;;8.27;5.63;;;;;;;12.62;75.30;102074.59;4951346;29;20222;-71
2022/05/09 07:32:05;;;;;;;12.37;5.87;;;;;;;12.78;75.88;102078.75;4951551;29;20245;-71
2022/05/09 07:34:32;;;;;;;11.23;5.40;;;;;;;12.83;71.13;102091.78;4950487;29;20218;-70
2022/05/09 07:36:59;;;;;;;10.30;6.00;;;;;;;12.88;71.98;102090.84;4950236;29;20223;-71
2022/05/09 07:39:26;;;;;;;11.77;6.03;;;;;;;12.90;71.56;102084.72;4950626;29;20231;-69
2022/05/09 07:41:52;;;;;;;12.73;5.77;;;;;;;12.89;71.12;102086.47;4950706;29;20691;-71
2022/05/09 07:44:19;;;;;;;16.73;5.63;;;;;;;13.02;70.82;102082.81;4950411;29;20214;-71
2022/05/09 07:46:45;;;;;;;13.67;5.57;;;;;;;13.19;67.17;102089.56;4950211;29;20675;-71
2022/05/09 07:49:11;;;;;;;8.60;5.40;;;;;;;13.30;66.42;102086.78;4950618;29;20223;-70
2022/05/09 07:51:38;;;;;;;10.53;5.97;;;;;;;13.38;66.13;102093.69;4950032;29;20206;-71
2022/05/09 07:54:06;;;;;;;11.77;5.90;;;;;;;13.41;66.43;102092.78;4950474;29;20218;-71
2022/05/09 07:56:32;;;;;;;11.17;5.50;;;;;;;13.56;66.21;102089.06;4949488;29;20217;-71
2022/05/09 07:58:59;;;;;;;10.67;5.37;;;;;;;13.62;65.10;102091.59;4946322;29;20230;-70
2022/05/09 08:01:25;;;;;;;10.93;5.30;;;;;;;13.65;64.75;102094.19;4946712;29;20708;-71
2022/05/09 08:03:52;;;;;;;12.33;5.67;;;;;;;13.75;66.21;102082.63;4950115;29;20208;-71
2022/05/09 08:06:18;;;;;;;11.53;5.50;;;;;;;13.87;63.76;102091.22;4932485;29;20608;-71
2022/05/09 08:08:48;;;;;;;9.60;4.77;;;;;;;13.98;65.85;102078.78;4949845;29;20219;-70
2022/05/09 08:11:17;;;;;;;10.37;5.43;;;;;;;14.16;63.94;102086.34;4946128;29;20231;-71
2022/05/09 08:13:44;;;;;;;10.20;5.40;;;;;;;14.27;62.65;102087.91;4935561;29;20277;-70
2022/05/09 08:16:12;;;;;;;10.50;4.80;;;;;;;14.41;62.13;102083.25;4948922;29;20220;-72
2022/05/09 08:18:38;;;;;;;10.90;5.53;;;;;;;14.51;64.68;102073.44;4948989;29;20239;-71
2022/05/09 08:21:05;;;;;;;11.37;5.30;;;;;;;14.51;61.64;102079.56;4948293;28;20292;-70
2022/05/09 08:23:31;;;;;;;10.10;5.10;;;;;;;14.55;61.31;102085.63;4961469;28;20210;-71
2022/05/09 08:25:58;;;;;;;12.57;5.90;;;;;;;14.74;61.11;102088.78;4950676;29;20745;-71
2022/05/09 08:28:26;;;;;;;10.97;5.00;;;;;;;14.85;60.70;102084.16;4952025;29;20241;-70
2022/05/09 08:30:52;;;;;;;12.00;5.30;;;;;;;14.92;60.63;102077.03;4952330;29;20202;-71
2022/05/09 08:33:22;;;;;;;12.13;4.77;;;;;;;15.07;60.14;102088.94;4949210;29;20210;-71
2022/05/09 08:35:51;;;;;;;10.03;4.87;;;;;;;15.19;60.00;102088.69;4951187;28;20199;-71
2022/05/09 08:38:18;;;;;;;9.80;4.97;;;;;;;15.32;59.27;102084.91;4951858;29;20852;-71
2022/05/09 08:40:55;;;;;;;11.60;5.37;;;;;;;15.32;59.57;102081.41;4952343;29;20195;-71
2022/05/09 08:43:37;;;;;;;10.73;5.60;;;;;;;15.33;59.77;102083.97;4950624;28;20210;-71
2022/05/09 08:46:14;;;;;;;11.53;4.93;;;;;;;15.44;59.71;102080.25;4948985;29;20309;-70
2022/05/09 08:48:52;;;;;;;10.97;5.30;;;;;;;15.62;60.26;102081.56;4946084;29;20236;-70
2022/05/09 08:51:33;;;;;;;9.53;4.67;;;;;;;15.74;59.50;102080.41;4951535;29;20218;-71
2022/05/09 08:54:04;;;;;;;8.53;4.40;;;;;;;15.85;60.17;102078.44;4951148;28;20207;-71
2022/05/09 08:56:30;;;;;;;10.50;5.40;;;;;;;15.93;58.61;102083.47;4944091;29;20889;-71
2022/05/09 08:59:02;;;;;;;9.23;4.90;;;;;;;15.83;58.63;102083.72;4951449;29;20229;-70
2022/05/09 09:01:34;;;;;;;9.53;5.40;;;;;;;15.87;58.90;102081.88;4951912;29;20695;-72
2022/05/09 09:04:02;;;;;;;12.20;5.30;;;;;;;15.90;60.05;102080.03;4946433;29;20217;-71
2022/05/09 09:06:42;;;;;;;8.27;4.67;;;;;;;16.11;58.44;102085.63;4951307;29;20632;-71
2022/05/09 09:09:18;;;;;;;10.03;5.63;;;;;;;16.41;58.68;102085.72;4950490;29;20227;-71
2022/05/09 09:11:53;;;;;;;11.70;5.43;;;;;;;16.43;57.55;102079.50;4950012;29;20199;-71
2022/05/09 09:14:33;;;;;;;12.13;5.10;;;;;;;16.49;57.08;102086.38;4951537;29;20206;-71
2022/05/09 09:17:10;;;;;;;10.67;4.67;;;;;;;16.43;55.38;102090.03;4949479;29;20227;-70
2022/05/09 09:19:58;;;;;;;7.80;4.30;;;;;;;16.62;55.08;102084.25;4932753;29;20604;-71
2022/05/09 09:22:52;;;;;;;8.50;3.97;;;;;;;16.86;53.18;102100.31;4951210;29;20217;-71
2022/05/09 09:25:32;;;;;;;8.83;4.43;;;;;;;16.93;52.29;102097.44;4945692;29;20233;-71
2022/05/09 09:28:05;;;;;;;10.47;4.60;;;;;;;16.95;52.42;102095.63;4950350;29;20240;-71
2022/05/09 09:30:34;;;;;;;11.90;4.57;;;;;;;16.91;52.26;102094.00;4950797;29;20963;-72
2022/05/09 09:33:05;;;;;;;10.73;4.77;;;;;;;17.09;51.16;102089.09;4950301;28;20193;-70
2022/05/09 09:35:43;;;;;;;7.77;4.10;;;;;;;17.12;50.15;102096.91;4950447;29;20216;-71
2022/05/09 09:38:18;;;;;;;9.60;3.77;;;;;;;17.07;49.45;102090.91;4950163;29;20218;-71
2022/05/09 09:40:44;;;;;;;6.37;3.87;;;;;;;17.05;50.13;102088.31;4949587;29;20205;-71
2022/05/09 09:43:11;;;;;;;11.27;4.67;;;;;;;17.06;49.94;102083.91;4950601;29;20213;-70
2022/05/09 09:45:44;;;;;;;9.93;4.03;;;;;;;17.25;48.39;102085.06;4949484;29;20203;-71
2022/05/09 09:48:13;;;;;;;9.07;4.20;;;;;;;17.49;49.67;102078.16;4950189;29;20202;-71
2022/05/09 09:50:56;;;;;;;10.40;4.10;;;;;;;17.68;48.45;102078.44;4949938;29;20217;-71
2022/05/09 09:53:35;;;;;;;7.67;4.20;;;;;;;17.37;48.08;102074.13;4947252;29;20579;-71
2022/05/09 09:56:06;;;;;;;9.87;4.10;;;;;;;17.45;49.00;102066.00;4954988;28;20696;-71
2022/05/09 09:58:33;;;;;;;8.93;4.30;;;;;;;17.36;47.09;102068.91;4949273;28;20254;-72
2022/05/09 10:01:08;;;;;;;6.87;3.23;;;;;;;17.67;46.88;102071.41;4946776;28;20294;-72
2022/05/09 10:03:38;;;;;;;6.23;3.50;;;;;;;17.78;44.49;102074.56;4945537;29;20201;-71
2022/05/09 10:06:04;;;;;;;5.57;3.27;;;;;;;17.87;46.46;102062.88;4948112;29;20572;-71
2022/05/09 10:08:33;;;;;;;5.17;3.17;;;;;;;17.95;42.80;102071.38;4947922;29;20215;-71
2022/05/09 10:11:07;;;;;;;5.67;3.03;;;;;;;18.04;44.49;102064.06;4947897;29;20289;-71
2022/05/09 10:13:36;;;;;;;6.00;3.13;;;;;;;18.13;43.50;102069.03;4947982;29;20444;-69
2022/05/09 10:16:08;;;;;;;7.03;3.07;;;;;;;18.13;44.39;102053.19;4948004;29;20214;-72
2022/05/09 10:18:35;;;;;;;3.67;2.60;;;;;;;18.33;41.12;102050.69;4948398;29;20305;-71
2022/05/09 10:21:14;;;;;;;6.40;3.13;;;;;;;18.20;39.02;102061.75;4949422;29;20207;-71
2022/05/09 10:26:34;;;;;;;6.33;2.60;;;;;;;18.55;38.08;102055.19;4948339;29;20558;-70
2022/05/09 10:29:05;;;;;;;6.23;2.90;;;;;;;18.65;38.34;102051.28;4945310;29;20221;-71
2022/05/09 10:31:45;;;;;;;5.50;2.77;;;;;;;18.55;36.96;102049.91;4947607;29;20688;-71
2022/05/09 10:34:17;;;;;;;9.37;2.97;;;;;;;18.44;35.40;102052.94;4944555;29;20289;-71
2022/05/09 10:36:47;;;;;;;6.10;2.77;;;;;;;18.46;35.88;102040.56;4946456;29;20486;-71
2022/05/09 10:39:19;;;;;;;6.03;2.80;;;;;;;18.55;37.21;102034.06;4942260;28;20338;-71
2022/05/09 10:41:50;;;;;;;5.33;2.27;;;;;;;18.75;39.33;102025.41;4948690;29;20203;-72
2022/05/09 10:44:27;;;;;;;5.93;3.00;;;;;;;18.87;37.32;102046.09;4946866;28;20210;-71
2022/05/09 10:47:08;;;;;;;5.53;2.80;;;;;;;18.73;36.15;102048.34;4948986;29;20387;-72
2022/05/09 10:49:43;;;;;;;7.40;2.60;;;;;;;18.60;35.85;102037.41;4946064;29;20337;-70
2022/05/09 10:52:26;;;;;;;5.97;2.30;;;;;;;18.71;35.32;102032.59;4949677;29;20217;-71
2022/05/09 10:54:57;;;;;;;5.23;2.57;;;;;;;18.84;35.27;102022.44;4948945;29;20253;-71
2022/05/09 10:57:32;;;;;;;4.50;2.63;;;;;;;18.87;37.01;102019.69;4949343;29;20233;-71
2022/05/09 11:00:06;;;;;;;5.67;2.63;;;;;;;18.94;35.99;102016.78;4948982;29;20228;-71
2022/05/09 11:02:39;;;;;;;4.30;2.57;;;;;;;18.86;35.73;102020.59;4949254;29;20292;-70
2022/05/09 11:05:07;;;;;;;4.77;2.60;;;;;;;19.04;37.87;102004.94;4949384;29;20241;-71
2022/05/09 11:07:40;;;;;;;6.30;2.47;;;;;;;19.21;37.59;102007.75;4949222;29;20262;-71
2022/05/09 11:10:18;;;;;;;5.27;2.67;;;;;;;19.35;35.54;102008.97;4945521;29;20231;-71
2022/05/09 11:13:00;;;;;;;6.33;2.57;;;;;;;19.28;35.84;102008.38;4947716;29;20261;-71
2022/05/09 11:15:36;;;;;;;7.87;2.60;;;;;;;19.48;38.57;101981.94;4948260;29;20214;-71
2022/05/09 11:18:36;;;;;;;6.60;2.77;;;;;;;19.67;37.54;101997.06;4944453;29;20222;-71
2022/05/09 11:21:16;;;;;;;10.80;2.67;;;;;;;19.63;34.87;101996.31;4944522;29;20424;-71
2022/05/09 11:23:58;;;;;;;4.00;2.50;;;;;;;19.59;34.67;101992.06;4947442;29;20910;-71
2022/05/09 11:26:29;;;;;;;9.07;3.00;;;;;;;19.55;35.43;101984.34;4948954;29;20207;-71
2022/05/09 11:29:10;;;;;;;4.93;2.87;;;;;;;19.50;35.06;101976.59;4947794;29;20226;-72
2022/05/09 11:31:51;;;;;;;5.90;2.90;;;;;;;19.61;37.94;101969.06;4931800;29;20210;-71
2022/05/09 11:34:38;;;;;;;7.73;2.93;;;;;;;19.73;35.35;101967.66;4948894;29;20216;-70
2022/05/09 11:37:16;;;;;;;5.87;2.40;;;;;;;19.90;33.74;101977.56;4948643;29;20198;-71
2022/05/09 11:39:53;;;;;;;5.90;2.70;;;;;;;19.91;35.45;101973.13;4946851;29;20237;-71
2022/05/09 11:45:22;;;;;;;7.77;2.80;;;;;;;19.87;34.02;101964.47;4942440;28;20746;-71
2022/05/09 11:47:56;;;;;;;4.23;2.40;;;;;;;19.97;34.90;101963.13;4938436;29;20962;-71
2022/05/09 11:50:38;;;;;;;4.57;2.30;;;;;;;20.09;33.90;101967.03;4940457;29;20222;-72